createdAt,value
2023-09-10T00:02:13.469Z,10.52
2023-09-10T00:04:41.432Z,10.70
2023-09-10T00:07:09.912Z,11.40
2023-09-10T00:09:37.923Z,10.93
2023-09-10T00:12:06.307Z,10.15
2023-09-10T00:14:34.768Z,10.60
2023-09-10T00:17:02.899Z,10.23
2023-09-10T00:19:35.850Z,10.77
2023-09-10T00:22:03.739Z,9.90
2023-09-10T00:24:31.669Z,10.23
2023-09-10T00:26:59.600Z,8.93
2023-09-10T00:29:27.874Z,9.57
2023-09-10T00:31:55.852Z,9.30
2023-09-10T00:34:23.950Z,9.30
2023-09-10T00:36:53.727Z,8.90
2023-09-10T00:39:22.083Z,9.85
2023-09-10T00:41:50.035Z,9.18
2023-09-10T00:44:18.030Z,9.63
2023-09-10T00:46:46.267Z,10.07
2023-09-10T00:49:14.648Z,9.68
2023-09-10T00:51:42.620Z,10.95
2023-09-10T00:54:12.569Z,10.38
2023-09-10T00:56:41.169Z,9.43
2023-09-10T00:59:10.822Z,9.25
2023-09-10T01:01:39.276Z,9.45
2023-09-10T01:04:07.738Z,9.80
2023-09-10T01:06:38.038Z,9.30
2023-09-10T01:09:06.534Z,10.15
2023-09-10T01:11:43.646Z,10.43
2023-09-10T01:14:18.693Z,10.02
2023-09-10T01:16:53.581Z,9.52
2023-09-10T01:19:48.173Z,11.35
2023-09-10T01:22:27.717Z,9.10
2023-09-10T01:24:57.985Z,10.50
2023-09-10T01:27:25.980Z,9.60
2023-09-10T01:29:53.998Z,9.77
2023-09-10T01:32:27.479Z,9.65
2023-09-10T01:35:01.310Z,9.63
2023-09-10T01:37:37.103Z,10.57
2023-09-10T01:40:10.836Z,9.18
2023-09-10T01:42:39.737Z,9.45
2023-09-10T01:45:09.254Z,9.68
2023-09-10T01:47:37.254Z,9.05
2023-09-10T01:50:07.711Z,9.20
2023-09-10T01:52:35.737Z,9.30
2023-09-10T01:55:03.731Z,9.80
2023-09-10T01:57:33.085Z,9.93
2023-09-10T02:00:00.961Z,9.13
2023-09-10T02:02:28.956Z,9.85
2023-09-10T02:04:57.138Z,8.65
2023-09-10T02:07:25.056Z,10.18
2023-09-10T02:09:52.931Z,9.35
2023-09-10T02:12:20.841Z,9.23
2023-09-10T02:14:50.236Z,10.82
2023-09-10T02:17:18.268Z,10.20
2023-09-10T02:19:46.320Z,10.38
2023-09-10T02:22:14.246Z,10.32
2023-09-10T02:24:42.153Z,10.10
2023-09-10T02:27:10.169Z,10.15
2023-09-10T02:29:38.125Z,10.65
2023-09-10T02:32:07.652Z,11.32
2023-09-10T02:34:35.700Z,11.57
2023-09-10T02:37:04.265Z,11.02
2023-09-10T02:39:32.215Z,11.07
2023-09-10T02:42:00.114Z,10.80
2023-09-10T02:44:28.012Z,10.68
2023-09-10T02:46:56.008Z,11.50
2023-09-10T02:49:26.001Z,10.65
2023-09-10T02:51:55.074Z,10.05
2023-09-10T02:54:23.057Z,10.25
2023-09-10T02:56:52.543Z,10.27
2023-09-10T02:59:21.948Z,10.82
2023-09-10T03:01:50.482Z,9.80
2023-09-10T03:04:19.326Z,9.88
2023-09-10T03:06:49.537Z,10.63
2023-09-10T03:09:18.765Z,10.73
2023-09-10T03:11:48.110Z,11.43
2023-09-10T03:14:17.413Z,12.00
2023-09-10T03:16:46.342Z,11.07
2023-09-10T03:19:14.433Z,11.13
2023-09-10T03:21:42.348Z,11.55
2023-09-10T03:24:12.475Z,10.45
2023-09-10T03:26:40.504Z,11.55
2023-09-10T03:29:08.398Z,12.02
2023-09-10T03:31:36.351Z,11.48
2023-09-10T03:34:04.279Z,11.20
2023-09-10T03:36:32.217Z,11.75
2023-09-10T03:39:00.080Z,12.00
2023-09-10T03:41:29.416Z,11.38
2023-09-10T03:43:58.220Z,11.77
2023-09-10T03:46:26.241Z,10.35
2023-09-10T03:48:54.200Z,12.57
2023-09-10T03:51:22.116Z,9.90
2023-09-10T03:53:49.992Z,10.30
2023-09-10T03:56:17.896Z,11.45
2023-09-10T03:58:47.128Z,11.82
2023-09-10T04:01:15.076Z,10.85
2023-09-10T04:03:43.024Z,11.02
2023-09-10T04:06:10.971Z,11.45
2023-09-10T04:08:39.075Z,9.35
2023-09-10T04:11:07.727Z,11.57
2023-09-10T04:13:35.723Z,11.35
2023-09-10T04:16:05.283Z,11.05
2023-09-10T04:18:34.407Z,11.07
2023-09-10T04:21:04.513Z,10.32
2023-09-10T04:23:32.403Z,11.45
2023-09-10T04:26:00.327Z,11.48
2023-09-10T04:28:28.259Z,11.05
2023-09-10T04:30:56.492Z,10.32
2023-09-10T04:33:25.781Z,11.13
2023-09-10T04:35:58.224Z,11.68
2023-09-10T04:38:26.320Z,11.45
2023-09-10T04:40:54.274Z,10.85
2023-09-10T04:43:22.168Z,10.90
2023-09-10T04:45:50.288Z,11.68
2023-09-10T04:48:18.974Z,11.68
2023-09-10T04:50:48.656Z,11.15
2023-09-10T04:53:18.505Z,11.05
2023-09-10T04:55:46.495Z,11.77
2023-09-10T04:58:14.780Z,10.50
2023-09-10T05:00:43.001Z,11.55
2023-09-10T05:03:11.044Z,10.90
2023-09-10T05:05:38.990Z,11.20
2023-09-10T05:08:11.821Z,10.88
2023-09-10T05:10:39.843Z,10.93
2023-09-10T05:13:07.817Z,10.82
2023-09-10T05:15:35.698Z,11.07
2023-09-10T05:18:03.684Z,11.88
2023-09-10T05:23:19.819Z,10.85
2023-09-10T05:25:47.853Z,11.35
2023-09-10T05:28:15.937Z,10.75
2023-09-10T05:30:44.111Z,11.13
2023-09-10T05:33:12.320Z,10.90
2023-09-10T05:35:40.332Z,11.95
2023-09-10T05:38:11.305Z,10.32
2023-09-10T05:40:40.622Z,11.05
2023-09-10T05:43:08.685Z,9.65
2023-09-10T05:45:36.634Z,11.02
2023-09-10T05:48:04.874Z,10.48
2023-09-10T05:50:32.943Z,10.10
2023-09-10T05:53:01.122Z,9.32
2023-09-10T05:55:29.166Z,11.27
2023-09-10T05:57:58.464Z,10.45
2023-09-10T06:00:26.464Z,11.13
2023-09-10T06:02:54.481Z,10.57
2023-09-10T06:05:22.515Z,11.13
2023-09-10T06:07:50.515Z,10.60
2023-09-10T06:10:18.460Z,10.55
2023-09-10T06:12:46.367Z,10.65
2023-09-10T06:15:15.682Z,9.48
2023-09-10T06:17:43.680Z,10.57
2023-09-10T06:20:13.185Z,10.48
2023-09-10T06:22:41.267Z,11.50
2023-09-10T06:25:09.997Z,10.77
2023-09-10T06:27:38.203Z,10.68
2023-09-10T06:30:07.322Z,10.07
2023-09-10T06:32:36.673Z,13.23
2023-09-10T06:35:04.829Z,10.52
2023-09-10T06:37:32.871Z,11.80
2023-09-10T06:40:01.227Z,10.95
2023-09-10T06:42:29.408Z,12.35
2023-09-10T06:44:57.554Z,11.60
2023-09-10T06:47:25.959Z,11.88
2023-09-10T06:49:55.601Z,13.02
2023-09-10T06:52:23.550Z,11.98
2023-09-10T06:54:51.880Z,12.40
2023-09-10T06:57:19.863Z,13.15
2023-09-10T06:59:47.811Z,12.63
2023-09-10T07:02:15.773Z,11.82
2023-09-10T07:04:48.706Z,10.73
2023-09-10T07:07:18.283Z,11.93
2023-09-10T07:09:46.189Z,11.50
2023-09-10T07:12:14.123Z,11.40
2023-09-10T07:14:43.948Z,12.95
2023-09-10T07:17:11.949Z,11.68
2023-09-10T07:19:41.710Z,12.50
2023-09-10T07:22:09.648Z,12.05
2023-09-10T07:24:38.915Z,11.45
2023-09-10T07:27:06.890Z,11.65
2023-09-10T07:29:34.767Z,11.82
2023-09-10T07:32:02.749Z,11.48
2023-09-10T07:34:30.694Z,12.02
2023-09-10T07:36:58.654Z,12.82
2023-09-10T07:39:30.486Z,11.43
2023-09-10T07:41:59.775Z,10.77
2023-09-10T07:44:27.874Z,12.15
2023-09-10T07:46:55.829Z,10.60
2023-09-10T07:49:23.796Z,11.48
2023-09-10T07:51:51.690Z,11.18
2023-09-10T07:54:19.584Z,11.45
2023-09-10T07:56:47.459Z,11.20
2023-09-10T07:59:16.967Z,11.45
2023-09-10T08:01:45.273Z,11.23
2023-09-10T08:04:13.379Z,11.93
2023-09-10T08:06:41.466Z,11.27
2023-09-10T08:09:09.688Z,11.82
2023-09-10T08:11:37.660Z,11.45
2023-09-10T08:14:05.770Z,10.70
2023-09-10T08:16:35.088Z,12.57
2023-09-10T08:19:03.003Z,11.63
2023-09-10T08:21:30.949Z,11.43
2023-09-10T08:23:58.865Z,11.70
2023-09-10T08:26:26.829Z,12.45
2023-09-10T08:28:54.836Z,10.77
2023-09-10T08:31:22.755Z,12.55
2023-09-10T08:33:52.018Z,12.20
2023-09-10T08:36:19.906Z,12.52
2023-09-10T08:38:47.862Z,11.95
2023-09-10T08:41:23.042Z,13.45
2023-09-10T08:43:56.846Z,12.20
2023-09-10T08:46:31.454Z,13.10
2023-09-10T08:49:02.844Z,14.57
2023-09-10T08:51:32.596Z,13.88
2023-09-10T08:54:03.112Z,15.07
2023-09-10T08:56:31.794Z,15.05
2023-09-10T08:59:01.664Z,14.85
2023-09-10T09:01:29.643Z,14.63
2023-09-10T09:03:57.591Z,17.13
2023-09-10T09:06:30.722Z,14.98
2023-09-10T09:09:06.722Z,14.60
2023-09-10T09:11:37.138Z,14.27
2023-09-10T09:14:08.528Z,14.02
2023-09-10T09:16:36.744Z,15.35
2023-09-10T09:19:11.907Z,15.98
2023-09-10T09:21:42.601Z,13.77
2023-09-10T09:24:13.247Z,14.38
2023-09-10T09:26:44.733Z,14.73
2023-09-10T09:29:13.732Z,13.13
2023-09-10T09:31:41.761Z,16.42
2023-09-10T09:34:09.802Z,15.52
2023-09-10T09:36:43.872Z,14.95
2023-09-10T09:39:18.387Z,16.15
2023-09-10T09:41:51.942Z,13.30
2023-09-10T09:44:20.595Z,16.50
2023-09-10T09:46:49.895Z,15.45
2023-09-10T09:49:18.929Z,16.00
2023-09-10T09:51:48.510Z,16.02
2023-09-10T09:54:16.417Z,13.02
2023-09-10T09:56:45.551Z,14.95
2023-09-10T09:59:13.524Z,13.63
2023-09-10T10:01:41.681Z,15.38
2023-09-10T10:04:09.835Z,14.68
2023-09-10T10:06:48.833Z,14.48
2023-09-10T10:09:20.324Z,13.10
2023-09-10T10:11:49.148Z,13.52
2023-09-10T10:14:18.074Z,12.93
2023-09-10T10:16:47.692Z,12.38
2023-09-10T10:19:16.562Z,12.82
2023-09-10T10:21:46.860Z,12.95
2023-09-10T10:24:18.902Z,11.85
2023-09-10T10:29:15.924Z,12.73
2023-09-10T10:31:48.846Z,11.98
2023-09-10T10:34:20.652Z,11.88
2023-09-10T10:37:03.426Z,12.25
2023-09-10T10:39:40.230Z,11.88
2023-09-10T10:42:11.835Z,12.57
2023-09-10T10:44:40.252Z,10.35
2023-09-10T10:47:14.592Z,9.48
2023-09-10T10:49:52.093Z,8.98
2023-09-10T10:52:23.329Z,9.93
2023-09-10T10:54:53.890Z,8.52
2023-09-10T10:57:23.752Z,8.07
2023-09-10T10:59:52.262Z,8.93
2023-09-10T11:02:23.397Z,7.40
2023-09-10T11:05:00.049Z,6.57
2023-09-10T11:07:31.491Z,7.15
2023-09-10T11:10:02.409Z,8.27
2023-09-10T11:12:30.609Z,7.57
2023-09-10T11:15:14.173Z,8.05
2023-09-10T11:17:42.645Z,7.90
2023-09-10T11:20:11.153Z,5.72
2023-09-10T11:23:11.202Z,5.90
2023-09-10T11:25:42.487Z,5.53
2023-09-10T11:28:39.418Z,5.88
2023-09-10T11:31:29.583Z,5.47
2023-09-10T11:33:59.323Z,5.93
2023-09-10T11:36:28.001Z,5.35
2023-09-10T11:38:57.106Z,5.30
2023-09-10T11:41:27.505Z,4.30
2023-09-10T11:43:56.948Z,4.57
2023-09-10T11:46:24.909Z,6.05
2023-09-10T11:48:52.825Z,4.93
2023-09-10T11:51:21.454Z,4.60
2023-09-10T11:53:49.492Z,5.18
2023-09-10T11:56:17.581Z,4.50
2023-09-10T11:58:46.962Z,4.38
2023-09-10T12:01:15.098Z,5.20
2023-09-10T12:03:45.258Z,5.45
2023-09-10T12:06:13.844Z,5.03
2023-09-10T12:08:42.119Z,4.40
2023-09-10T12:11:12.654Z,4.95
2023-09-10T12:13:41.635Z,4.93
2023-09-10T12:16:12.832Z,4.47
2023-09-10T12:18:41.890Z,4.25
2023-09-10T12:21:15.564Z,3.80
2023-09-10T12:23:43.984Z,4.28
2023-09-10T12:26:13.146Z,4.30
2023-09-10T12:28:41.923Z,4.18
2023-09-10T12:31:13.627Z,4.80
2023-09-10T12:33:42.973Z,4.30
2023-09-10T12:36:11.267Z,4.68
2023-09-10T12:38:39.437Z,4.15
2023-09-10T12:41:07.656Z,5.30
2023-09-10T12:43:36.253Z,4.65
2023-09-10T12:46:04.336Z,4.38
2023-09-10T12:48:33.952Z,4.05
2023-09-10T12:51:02.137Z,4.50
2023-09-10T12:53:30.168Z,4.22
2023-09-10T12:55:58.428Z,4.05
2023-09-10T12:58:27.122Z,5.13
2023-09-10T13:00:59.422Z,4.18
2023-09-10T13:03:35.731Z,3.80
2023-09-10T13:06:05.296Z,4.07
2023-09-10T13:08:33.378Z,3.60
2023-09-10T13:11:03.133Z,3.80
2023-09-10T13:13:31.098Z,3.33
2023-09-10T13:15:59.019Z,3.60
2023-09-10T13:18:27.007Z,3.70
2023-09-10T13:20:54.979Z,3.88
2023-09-10T13:23:24.560Z,3.95
2023-09-10T13:25:52.687Z,3.75
2023-09-10T13:28:20.718Z,3.38
2023-09-10T13:30:48.892Z,3.70
2023-09-10T13:33:16.901Z,4.13
2023-09-10T13:35:44.997Z,3.15
2023-09-10T13:38:12.962Z,3.67
2023-09-10T13:40:42.872Z,3.63
2023-09-10T13:43:11.276Z,4.60
2023-09-10T13:45:45.508Z,3.42
2023-09-10T13:48:19.321Z,7.35
2023-09-10T13:50:50.200Z,4.30
2023-09-10T13:53:20.993Z,3.47
2023-09-10T13:55:59.376Z,3.60
2023-09-10T13:58:27.590Z,4.20
2023-09-10T14:00:55.646Z,3.30
2023-09-10T14:03:27.502Z,4.10
2023-09-10T14:05:56.323Z,3.78
2023-09-10T14:08:25.054Z,3.65
2023-09-10T14:10:54.547Z,5.00
2023-09-10T14:13:28.348Z,4.10
2023-09-10T14:15:57.631Z,4.15
2023-09-10T14:18:25.785Z,3.95
2023-09-10T14:20:53.880Z,3.90
2023-09-10T14:23:21.924Z,3.72
2023-09-10T14:25:50.672Z,4.00
2023-09-10T14:28:20.181Z,3.83
2023-09-10T14:30:51.516Z,2.95
2023-09-10T14:33:19.811Z,3.72
2023-09-10T14:35:47.904Z,4.43
2023-09-10T14:38:15.902Z,3.95
2023-09-10T14:40:43.880Z,3.30
2023-09-10T14:43:12.035Z,3.75
2023-09-10T14:45:41.773Z,3.45
2023-09-10T14:48:09.770Z,3.78
2023-09-10T14:50:38.494Z,3.05
2023-09-10T14:53:06.638Z,3.75
2023-09-10T14:55:34.637Z,3.58
2023-09-10T14:58:04.173Z,3.20
2023-09-10T15:00:32.182Z,3.72
2023-09-10T15:03:01.694Z,3.55
2023-09-10T15:05:29.948Z,3.60
2023-09-10T15:07:59.267Z,3.45
2023-09-10T15:10:27.406Z,3.20
2023-09-10T15:12:55.366Z,4.15
2023-09-10T15:15:23.322Z,3.05
2023-09-10T15:17:51.387Z,3.60
2023-09-10T15:20:20.862Z,3.72
2023-09-10T15:22:48.878Z,3.42
2023-09-10T15:25:16.865Z,3.63
2023-09-10T15:27:44.848Z,3.10
2023-09-10T15:30:14.130Z,3.30
2023-09-10T15:32:42.248Z,3.10
2023-09-10T15:35:10.550Z,3.45
2023-09-10T15:37:49.510Z,3.88
2023-09-10T15:40:17.712Z,3.28
2023-09-10T15:42:45.757Z,3.80
2023-09-10T15:45:13.990Z,3.85
2023-09-10T15:47:42.071Z,3.78
2023-09-10T15:50:10.264Z,3.45
2023-09-10T15:52:40.038Z,4.65
2023-09-10T15:55:08.874Z,3.53
2023-09-10T15:57:36.925Z,4.22
2023-09-10T16:00:06.314Z,5.18
2023-09-10T16:02:39.832Z,3.13
2023-09-10T16:05:09.115Z,3.72
2023-09-10T16:07:37.362Z,3.28
2023-09-10T16:10:08.103Z,3.10
2023-09-10T16:12:37.011Z,3.30
2023-09-10T16:15:06.358Z,3.28
2023-09-10T16:17:34.292Z,3.25
2023-09-10T16:20:02.332Z,3.22
2023-09-10T16:22:34.148Z,3.30
2023-09-10T16:25:02.121Z,3.40
2023-09-10T16:27:31.551Z,3.42
2023-09-10T16:29:59.522Z,3.03
2023-09-10T16:32:27.443Z,3.28
2023-09-10T16:34:55.426Z,2.75
2023-09-10T16:37:23.329Z,3.50
2023-09-10T16:39:51.240Z,2.83
2023-09-10T16:42:19.143Z,3.28
2023-09-10T16:44:48.992Z,3.53
2023-09-10T16:47:17.143Z,4.55
2023-09-10T16:49:45.349Z,3.42
2023-09-10T16:52:13.265Z,3.45
2023-09-10T16:54:41.384Z,3.28
2023-09-10T16:57:09.310Z,3.38
2023-09-10T16:59:37.232Z,3.10
2023-09-10T17:02:07.988Z,3.08
2023-09-10T17:04:36.116Z,3.78
2023-09-10T17:07:04.242Z,2.78
2023-09-10T17:09:32.128Z,3.13
2023-09-10T17:12:00.009Z,3.83
2023-09-10T17:14:27.991Z,3.20
2023-09-10T17:16:55.905Z,3.50
2023-09-10T17:19:25.738Z,2.67
2023-09-10T17:21:53.932Z,2.70
2023-09-10T17:24:22.887Z,3.13
2023-09-10T17:26:50.941Z,3.40
2023-09-10T17:29:18.857Z,3.45
2023-09-10T17:31:47.176Z,4.28
2023-09-10T17:34:15.431Z,4.40
2023-09-10T17:36:44.661Z,3.83
2023-09-10T17:39:12.552Z,4.10
2023-09-10T17:41:41.353Z,3.90
2023-09-10T17:44:09.341Z,4.45
2023-09-10T17:46:37.266Z,4.05
2023-09-10T17:49:05.258Z,3.97
2023-09-10T17:51:33.603Z,4.57
2023-09-10T17:54:03.008Z,4.45
2023-09-10T17:56:31.009Z,4.10
2023-09-10T17:59:00.045Z,4.15
2023-09-10T18:01:28.186Z,4.10
2023-09-10T18:03:56.234Z,3.95
2023-09-10T18:06:24.283Z,4.32
2023-09-10T18:08:52.804Z,3.80
2023-09-10T18:11:22.136Z,4.78
2023-09-10T18:13:50.152Z,4.15
2023-09-10T18:16:18.352Z,4.07
2023-09-10T18:18:46.328Z,5.18
2023-09-10T18:21:14.602Z,4.40
2023-09-10T18:23:43.003Z,4.55
2023-09-10T18:26:12.415Z,3.88
2023-09-10T18:28:41.763Z,4.70
2023-09-10T18:31:09.757Z,4.47
2023-09-10T18:33:37.799Z,4.50
2023-09-10T18:36:06.044Z,5.32
2023-09-10T18:38:42.003Z,5.03
2023-09-10T18:41:10.095Z,5.68
2023-09-10T18:43:38.835Z,4.82
2023-09-10T18:46:08.351Z,5.53
2023-09-10T18:48:36.390Z,5.10
2023-09-10T18:51:04.868Z,5.63
2023-09-10T18:53:33.484Z,7.25
2023-09-10T18:56:01.628Z,5.82
2023-09-10T18:58:29.706Z,5.03
2023-09-10T19:00:59.392Z,4.57
2023-09-10T19:03:29.160Z,5.80
2023-09-10T19:05:59.240Z,5.82
2023-09-10T19:08:27.544Z,5.88
2023-09-10T19:10:56.570Z,5.47
2023-09-10T19:13:25.314Z,6.28
2023-09-10T19:15:54.037Z,5.05
2023-09-10T19:18:22.095Z,5.00
2023-09-10T19:20:51.425Z,5.57
2023-09-10T19:23:20.300Z,5.32
2023-09-10T19:25:51.102Z,6.47
2023-09-10T19:28:19.526Z,5.72
2023-09-10T19:30:50.842Z,5.63
2023-09-10T19:33:19.497Z,6.47
2023-09-10T19:35:47.510Z,5.63
2023-09-10T19:38:16.946Z,6.15
2023-09-10T19:40:49.860Z,6.40
2023-09-10T19:43:17.840Z,6.22
2023-09-10T19:45:45.767Z,5.30
2023-09-10T19:48:13.783Z,7.93
2023-09-10T19:50:41.928Z,5.90
2023-09-10T19:53:09.878Z,7.40
2023-09-10T19:55:39.277Z,5.90
2023-09-10T19:58:07.218Z,5.57
2023-09-10T20:00:35.144Z,5.47
2023-09-10T20:03:03.269Z,6.03
2023-09-10T20:05:31.430Z,5.38
2023-09-10T20:07:59.390Z,6.00
2023-09-10T20:10:27.281Z,5.85
2023-09-10T20:12:57.923Z,5.43
2023-09-10T20:15:25.885Z,6.00
2023-09-10T20:17:54.139Z,5.80
2023-09-10T20:20:22.186Z,6.47
2023-09-10T20:22:50.241Z,6.28
2023-09-10T20:25:18.444Z,5.82
2023-09-10T20:27:46.316Z,6.85
2023-09-10T20:30:15.896Z,5.70
2023-09-10T20:32:44.061Z,5.90
2023-09-10T20:35:12.114Z,5.47
2023-09-10T20:37:40.067Z,7.05
2023-09-10T20:40:09.654Z,6.35
2023-09-10T20:42:37.913Z,6.00
2023-09-10T20:45:06.299Z,6.60
2023-09-10T20:47:35.586Z,5.35
2023-09-10T20:50:04.296Z,6.65
2023-09-10T20:52:32.376Z,6.03
2023-09-10T20:55:00.291Z,6.72
2023-09-10T20:57:28.218Z,6.68
2023-09-10T20:59:56.122Z,5.82
2023-09-10T21:02:24.110Z,5.68
2023-09-10T21:04:53.509Z,6.70
2023-09-10T21:07:21.756Z,6.88
2023-09-10T21:09:50.107Z,5.75
2023-09-10T21:12:18.022Z,5.80
2023-09-10T21:14:46.067Z,6.25
2023-09-10T21:17:15.708Z,7.13
2023-09-10T21:19:43.981Z,7.25
2023-09-10T21:22:13.489Z,6.50
2023-09-10T21:24:41.371Z,5.80
2023-09-10T21:27:09.757Z,6.75
2023-09-10T21:29:38.494Z,6.88
2023-09-10T21:32:07.249Z,6.30
2023-09-10T21:34:35.318Z,6.05
2023-09-10T21:37:03.380Z,6.95
2023-09-10T21:39:32.772Z,6.55
2023-09-10T21:42:00.652Z,7.13
2023-09-10T21:44:28.567Z,6.53
2023-09-10T21:46:56.527Z,7.07
2023-09-10T21:49:25.716Z,5.47
2023-09-10T21:51:53.896Z,5.95
2023-09-10T21:54:26.979Z,5.65
2023-09-10T21:56:56.181Z,5.88
2023-09-10T21:59:24.273Z,6.47
2023-09-10T22:01:52.218Z,5.68
2023-09-10T22:04:20.812Z,6.38
2023-09-10T22:06:50.414Z,6.90
2023-09-10T22:09:18.434Z,6.60
2023-09-10T22:11:46.384Z,6.93
2023-09-10T22:14:15.877Z,6.13
2023-09-10T22:16:43.775Z,6.43
2023-09-10T22:19:13.961Z,6.13
2023-09-10T22:21:43.363Z,6.20
2023-09-10T22:24:11.282Z,5.88
2023-09-10T22:26:39.284Z,6.40
2023-09-10T22:29:07.234Z,6.28
2023-09-10T22:31:36.469Z,6.10
2023-09-10T22:34:04.479Z,6.97
2023-09-10T22:36:38.277Z,6.68
2023-09-10T22:39:08.568Z,6.60
2023-09-10T22:41:36.833Z,6.05
2023-09-10T22:44:05.079Z,6.15
2023-09-10T22:46:33.103Z,6.50
2023-09-10T22:49:01.426Z,5.50
2023-09-10T22:51:29.330Z,6.97
2023-09-10T22:53:57.208Z,6.60
2023-09-10T22:56:26.124Z,6.07
2023-09-10T22:58:54.095Z,6.55
2023-09-10T23:01:22.549Z,6.78
2023-09-10T23:03:50.630Z,6.43
2023-09-10T23:06:19.944Z,6.57
2023-09-10T23:08:47.843Z,5.90
2023-09-10T23:11:15.903Z,6.43
2023-09-10T23:13:44.233Z,6.03
2023-09-10T23:16:12.577Z,6.30
2023-09-10T23:18:40.717Z,5.88
2023-09-10T23:21:08.816Z,6.40
2023-09-10T23:23:40.256Z,6.43
2023-09-10T23:26:09.939Z,6.60
2023-09-10T23:28:37.947Z,7.30
2023-09-10T23:31:07.672Z,6.85
2023-09-10T23:33:35.730Z,6.32
2023-09-10T23:36:05.912Z,6.75
2023-09-10T23:38:34.569Z,6.40
2023-09-10T23:41:07.368Z,7.18
2023-09-10T23:43:36.458Z,6.28
2023-09-10T23:46:04.410Z,6.93
2023-09-10T23:48:32.389Z,7.22
2023-09-10T23:51:00.467Z,7.00
2023-09-10T23:53:28.430Z,7.13
2023-09-10T23:55:56.391Z,5.85
2023-09-10T23:58:25.671Z,6.47
